createdAt,value
2022-11-24T00:01:16.633Z,9.03
2022-11-24T00:03:46.522Z,9.00
2022-11-24T00:06:15.543Z,9.03
2022-11-24T00:08:45.108Z,9.00
2022-11-24T00:11:14.648Z,8.95
2022-11-24T00:13:42.665Z,8.95
2022-11-24T00:16:12.575Z,8.88
2022-11-24T00:18:41.101Z,8.93
2022-11-24T00:21:10.672Z,8.94
2022-11-24T00:23:38.838Z,8.94
2022-11-24T00:26:08.383Z,8.98
2022-11-24T00:28:36.917Z,8.99
2022-11-24T00:31:06.119Z,8.97
2022-11-24T00:33:33.989Z,9.00
2022-11-24T00:36:02.256Z,9.01
2022-11-24T00:38:31.414Z,9.01
2022-11-24T00:40:59.230Z,9.01
2022-11-24T00:43:27.175Z,9.01
2022-11-24T00:45:55.085Z,9.00
2022-11-24T00:48:23.538Z,9.01
2022-11-24T00:50:57.439Z,9.03
2022-11-24T00:53:25.501Z,9.05
2022-11-24T00:55:55.176Z,9.06
2022-11-24T00:58:23.544Z,9.05
2022-11-24T01:00:51.687Z,9.04
2022-11-24T01:03:20.463Z,9.10
2022-11-24T01:05:48.301Z,9.06
2022-11-24T01:08:16.183Z,9.11
2022-11-24T01:10:43.919Z,9.11
2022-11-24T01:13:13.311Z,9.13
2022-11-24T01:15:41.272Z,9.13
2022-11-24T01:18:09.104Z,9.13
2022-11-24T01:20:37.649Z,9.10
2022-11-24T01:23:05.439Z,9.11
2022-11-24T01:25:33.150Z,9.10
2022-11-24T01:28:00.928Z,9.07
2022-11-24T01:30:30.176Z,9.08
2022-11-24T01:32:57.928Z,9.09
2022-11-24T01:35:25.659Z,9.07
2022-11-24T01:37:53.414Z,9.07
2022-11-24T01:40:21.645Z,9.06
2022-11-24T01:42:50.898Z,9.07
2022-11-24T01:45:44.676Z,9.07
2022-11-24T01:48:17.205Z,9.07
2022-11-24T01:50:45.506Z,9.06
2022-11-24T01:53:13.570Z,9.08
2022-11-24T01:55:41.817Z,9.08
2022-11-24T01:58:12.731Z,9.10
2022-11-24T02:00:44.247Z,9.12
2022-11-24T02:03:13.558Z,9.08
2022-11-24T02:05:44.400Z,8.99
2022-11-24T02:08:16.147Z,9.07
2022-11-24T02:10:44.382Z,9.05
2022-11-24T02:13:12.241Z,9.05
2022-11-24T02:15:40.041Z,9.05
2022-11-24T02:18:09.403Z,9.05
2022-11-24T02:20:38.091Z,9.05
2022-11-24T02:23:11.330Z,9.09
2022-11-24T02:25:48.337Z,9.05
2022-11-24T02:28:19.527Z,9.09
2022-11-24T02:30:47.341Z,9.08
2022-11-24T02:33:15.585Z,9.10
2022-11-24T02:35:43.611Z,9.09
2022-11-24T02:38:13.336Z,9.10
2022-11-24T02:40:43.029Z,9.07
2022-11-24T02:43:14.269Z,9.12
2022-11-24T02:45:43.396Z,9.13
2022-11-24T02:48:11.187Z,9.13
2022-11-24T02:50:39.238Z,9.11
2022-11-24T02:53:07.106Z,9.13
2022-11-24T02:58:02.748Z,9.11
2022-11-24T03:00:30.468Z,9.12
2022-11-24T03:02:59.743Z,9.13
2022-11-24T03:05:27.825Z,9.12
2022-11-24T03:07:55.631Z,9.15
2022-11-24T03:10:24.414Z,9.14
2022-11-24T03:12:52.197Z,9.11
2022-11-24T03:15:19.960Z,9.12
2022-11-24T03:17:47.676Z,9.12
2022-11-24T03:20:17.179Z,9.12
2022-11-24T03:22:44.898Z,9.13
2022-11-24T03:25:12.634Z,9.14
2022-11-24T03:27:40.427Z,9.11
2022-11-24T03:30:09.499Z,9.12
2022-11-24T03:32:37.260Z,9.13
2022-11-24T03:35:06.082Z,9.13
2022-11-24T03:37:35.302Z,9.13
2022-11-24T03:40:03.076Z,9.11
2022-11-24T03:42:30.868Z,9.10
2022-11-24T03:45:04.261Z,9.09
2022-11-24T03:47:44.691Z,9.08
2022-11-24T03:50:12.432Z,9.07
2022-11-24T03:52:41.603Z,9.10
2022-11-24T03:55:09.422Z,9.09
2022-11-24T03:57:37.123Z,9.09
2022-11-24T04:00:06.831Z,9.07
2022-11-24T04:02:34.704Z,9.07
2022-11-24T04:05:02.507Z,9.06
2022-11-24T04:07:30.305Z,9.07
2022-11-24T04:09:59.680Z,9.03
2022-11-24T04:12:44.530Z,9.06
2022-11-24T04:15:13.227Z,9.06
2022-11-24T04:17:40.899Z,9.07
2022-11-24T04:20:09.840Z,9.04
2022-11-24T04:22:37.524Z,9.09
2022-11-24T04:25:08.293Z,8.98
2022-11-24T04:27:37.022Z,9.11
2022-11-24T04:30:04.958Z,9.09
2022-11-24T04:32:32.597Z,9.11
2022-11-24T04:35:00.224Z,9.11
2022-11-24T04:37:28.082Z,9.12
2022-11-24T04:39:55.992Z,9.14
2022-11-24T04:42:25.020Z,9.15
2022-11-24T04:44:52.656Z,9.18
2022-11-24T04:47:23.941Z,9.18
2022-11-24T04:49:51.878Z,9.17
2022-11-24T04:52:20.844Z,9.16
2022-11-24T04:54:48.643Z,9.15
2022-11-24T04:57:17.287Z,9.14
2022-11-24T04:59:46.464Z,9.12
2022-11-24T05:02:14.194Z,9.09
2022-11-24T05:04:42.102Z,9.10
2022-11-24T05:07:17.769Z,9.09
2022-11-24T05:10:03.711Z,9.11
2022-11-24T05:12:32.114Z,9.06
2022-11-24T05:15:01.995Z,9.07
2022-11-24T05:17:30.830Z,9.06
2022-11-24T05:19:58.754Z,9.07
2022-11-24T05:22:26.957Z,9.10
2022-11-24T05:24:54.631Z,9.10
2022-11-24T05:27:22.479Z,9.11
2022-11-24T05:29:50.363Z,9.15
2022-11-24T05:32:19.686Z,9.18
2022-11-24T05:34:47.968Z,9.19
2022-11-24T05:37:15.621Z,9.19
2022-11-24T05:39:43.606Z,9.22
2022-11-24T05:42:28.845Z,9.17
2022-11-24T05:44:57.429Z,9.19
2022-11-24T05:47:26.635Z,9.19
2022-11-24T05:49:54.294Z,9.21
2022-11-24T05:52:22.105Z,9.21
2022-11-24T05:54:49.773Z,9.22
2022-11-24T05:57:17.663Z,9.25
2022-11-24T05:59:46.117Z,9.26
2022-11-24T06:02:14.119Z,9.30
2022-11-24T06:04:43.302Z,9.31
2022-11-24T06:07:11.967Z,9.33
2022-11-24T06:09:40.475Z,9.35
2022-11-24T06:12:08.950Z,9.37
2022-11-24T06:14:36.764Z,9.37
2022-11-24T06:17:05.220Z,9.37
2022-11-24T06:19:34.132Z,9.40
2022-11-24T06:22:05.520Z,9.40
2022-11-24T06:24:33.467Z,9.42
2022-11-24T06:27:01.436Z,9.40
2022-11-24T06:29:29.055Z,9.38
2022-11-24T06:31:56.996Z,9.37
2022-11-24T06:34:24.784Z,9.38
2022-11-24T06:36:52.496Z,9.33
2022-11-24T06:39:21.536Z,9.36
2022-11-24T06:41:50.903Z,9.37
2022-11-24T06:44:18.675Z,9.39
2022-11-24T06:46:46.857Z,9.38
2022-11-24T06:49:14.540Z,9.41
2022-11-24T06:51:43.029Z,9.42
2022-11-24T06:54:13.815Z,9.44
2022-11-24T06:56:42.850Z,9.47
2022-11-24T06:59:17.210Z,9.48
2022-11-24T07:01:44.888Z,9.50
2022-11-24T07:04:12.496Z,9.50
2022-11-24T07:06:41.356Z,9.51
2022-11-24T07:09:09.939Z,9.50
2022-11-24T07:11:38.154Z,9.50
2022-11-24T07:14:07.645Z,9.50
2022-11-24T07:16:35.438Z,9.47
2022-11-24T07:19:03.298Z,9.43
2022-11-24T07:21:31.199Z,9.44
2022-11-24T07:23:59.360Z,9.41
2022-11-24T07:26:27.702Z,9.42
2022-11-24T07:28:55.585Z,9.42
2022-11-24T07:31:25.968Z,9.44
2022-11-24T07:33:55.022Z,9.42
2022-11-24T07:36:23.224Z,9.42
2022-11-24T07:38:51.343Z,9.42
2022-11-24T07:41:20.479Z,9.37
2022-11-24T07:43:49.118Z,9.38
2022-11-24T07:46:18.944Z,9.40
2022-11-24T07:48:48.379Z,9.41
2022-11-24T07:51:16.765Z,9.39
2022-11-24T07:53:44.884Z,9.43
2022-11-24T07:56:14.475Z,9.41
2022-11-24T07:58:42.168Z,9.32
2022-11-24T08:01:12.507Z,9.42
2022-11-24T08:03:40.436Z,9.41
2022-11-24T08:06:30.019Z,9.45
2022-11-24T08:08:58.159Z,9.44
2022-11-24T08:11:26.455Z,9.46
2022-11-24T08:13:54.345Z,9.46
2022-11-24T08:16:22.161Z,9.45
2022-11-24T08:18:51.310Z,9.45
2022-11-24T08:21:20.900Z,9.47
2022-11-24T08:23:48.595Z,9.48
2022-11-24T08:26:18.934Z,9.48
2022-11-24T08:28:47.692Z,9.44
2022-11-24T08:31:18.662Z,9.47
2022-11-24T08:33:47.052Z,9.46
2022-11-24T08:36:16.515Z,9.44
2022-11-24T08:38:46.213Z,9.45
2022-11-24T08:41:15.645Z,9.47
2022-11-24T08:43:43.785Z,9.51
2022-11-24T08:46:13.127Z,9.53
2022-11-24T08:48:41.538Z,9.52
2022-11-24T08:51:12.080Z,9.50
2022-11-24T08:53:40.036Z,9.53
2022-11-24T08:56:10.602Z,9.56
2022-11-24T08:58:39.022Z,9.55
2022-11-24T09:01:07.840Z,9.51
2022-11-24T09:03:35.865Z,9.56
2022-11-24T09:06:03.545Z,9.58
2022-11-24T09:08:31.617Z,9.60
2022-11-24T09:11:01.262Z,9.60
2022-11-24T09:13:30.541Z,9.60
2022-11-24T09:15:58.223Z,9.60
2022-11-24T09:18:30.046Z,9.61
2022-11-24T09:21:07.176Z,9.60
2022-11-24T09:23:35.078Z,9.62
2022-11-24T09:26:06.861Z,9.62
2022-11-24T09:28:36.311Z,9.62
2022-11-24T09:31:04.322Z,9.64
2022-11-24T09:33:32.526Z,9.65
2022-11-24T09:36:00.309Z,9.65
2022-11-24T09:38:28.783Z,9.68
2022-11-24T09:40:56.759Z,9.67
2022-11-24T09:43:29.668Z,9.64
2022-11-24T09:46:05.905Z,9.67
2022-11-24T09:48:37.536Z,9.72
2022-11-24T09:51:05.886Z,9.73
2022-11-24T09:53:37.283Z,9.72
2022-11-24T09:56:13.184Z,9.73
2022-11-24T09:58:44.448Z,9.74
2022-11-24T10:01:17.999Z,9.79
2022-11-24T10:03:47.709Z,9.82
2022-11-24T10:06:21.945Z,9.87
2022-11-24T10:09:12.176Z,9.86
2022-11-24T10:11:44.752Z,9.93
2022-11-24T10:14:29.537Z,9.98
2022-11-24T10:17:06.485Z,10.02
2022-11-24T10:19:41.443Z,10.07
2022-11-24T10:22:26.112Z,10.09
2022-11-24T10:25:09.253Z,10.11
2022-11-24T10:27:39.744Z,10.14
2022-11-24T10:30:15.262Z,10.17
2022-11-24T10:32:47.567Z,10.19
2022-11-24T10:35:18.472Z,10.24
2022-11-24T10:37:52.594Z,10.27
2022-11-24T10:40:49.152Z,10.29
2022-11-24T10:43:13.984Z,10.33
2022-11-24T10:45:42.024Z,10.35
2022-11-24T10:48:18.750Z,10.38
2022-11-24T10:50:46.493Z,10.40
2022-11-24T10:53:18.347Z,10.43
2022-11-24T10:56:02.891Z,10.47
2022-11-24T10:58:37.403Z,10.50
2022-11-24T11:01:21.213Z,10.53
2022-11-24T11:03:52.520Z,10.60
2022-11-24T11:06:23.576Z,10.61
2022-11-24T11:08:51.770Z,10.68
2022-11-24T11:11:22.039Z,10.68
2022-11-24T11:14:02.943Z,10.65
2022-11-24T11:16:36.139Z,10.64
2022-11-24T11:19:26.172Z,10.70
2022-11-24T11:22:01.508Z,10.77
2022-11-24T11:24:30.027Z,10.82
2022-11-24T11:27:01.536Z,10.84
2022-11-24T11:35:13.436Z,10.81
2022-11-24T11:37:41.791Z,10.77
2022-11-24T11:40:15.865Z,10.71
2022-11-24T11:43:01.952Z,10.72
2022-11-24T11:45:35.106Z,10.67
2022-11-24T11:48:15.074Z,10.64
2022-11-24T11:51:15.017Z,10.65
2022-11-24T11:53:44.796Z,10.66
2022-11-24T11:56:23.629Z,10.69
2022-11-24T11:59:28.009Z,10.79
2022-11-24T12:02:17.142Z,10.91
2022-11-24T12:04:48.534Z,10.96
2022-11-24T12:07:30.050Z,11.06
2022-11-24T12:10:02.708Z,11.05
2022-11-24T12:12:51.219Z,11.01
2022-11-24T12:15:23.759Z,11.02
2022-11-24T12:17:54.773Z,11.09
2022-11-24T12:20:37.485Z,11.13
2022-11-24T12:23:15.621Z,11.21
2022-11-24T12:25:46.969Z,11.29
2022-11-24T12:28:27.269Z,11.32
2022-11-24T12:31:06.849Z,11.35
2022-11-24T12:33:51.704Z,11.41
2022-11-24T12:36:32.444Z,11.43
2022-11-24T12:39:06.785Z,11.48
2022-11-24T12:41:47.233Z,11.49
2022-11-24T12:44:37.133Z,11.48
2022-11-24T12:47:12.724Z,11.50
2022-11-24T12:49:48.532Z,11.50
2022-11-24T12:52:21.592Z,11.55
2022-11-24T12:54:50.747Z,11.57
2022-11-24T12:57:21.851Z,11.57
2022-11-24T12:59:55.668Z,11.54
2022-11-24T13:02:30.043Z,11.52
2022-11-24T13:05:02.204Z,11.52
2022-11-24T13:07:40.486Z,11.54
2022-11-24T13:13:27.980Z,11.53
2022-11-24T13:19:08.215Z,11.57
2022-11-24T13:21:50.830Z,11.61
2022-11-24T13:24:26.883Z,11.66
2022-11-24T13:27:16.910Z,11.70
2022-11-24T13:29:45.432Z,11.69
2022-11-24T13:32:52.782Z,11.69
2022-11-24T13:35:20.476Z,11.69
2022-11-24T13:37:52.853Z,11.74
2022-11-24T13:40:54.348Z,11.76
2022-11-24T13:43:30.514Z,11.78
2022-11-24T13:45:58.165Z,11.73
2022-11-24T13:48:54.615Z,11.70
2022-11-24T13:51:25.468Z,11.67
2022-11-24T13:53:55.042Z,11.69
2022-11-24T13:56:25.858Z,11.68
2022-11-24T13:58:57.198Z,11.64
2022-11-24T14:01:26.170Z,11.61
2022-11-24T14:04:30.896Z,11.60
2022-11-24T14:07:07.284Z,11.59
2022-11-24T14:09:38.507Z,11.59
2022-11-24T14:12:12.770Z,11.53
2022-11-24T14:14:42.267Z,11.54
2022-11-24T14:20:18.116Z,11.48
2022-11-24T14:22:45.836Z,11.47
2022-11-24T14:25:21.725Z,11.42
2022-11-24T14:27:49.413Z,11.42
2022-11-24T14:30:21.141Z,11.41
2022-11-24T14:32:56.541Z,11.39
2022-11-24T14:35:27.828Z,11.39
2022-11-24T14:37:55.587Z,11.39
2022-11-24T14:40:43.957Z,11.34
2022-11-24T14:43:20.929Z,11.32
2022-11-24T14:45:50.908Z,11.31
2022-11-24T14:48:19.369Z,11.30
2022-11-24T14:50:48.525Z,11.29
2022-11-24T14:53:21.872Z,11.27
2022-11-24T14:56:07.575Z,11.27
2022-11-24T14:58:41.787Z,11.23
2022-11-24T15:01:12.157Z,11.17
2022-11-24T15:03:39.900Z,11.16
2022-11-24T15:06:17.923Z,11.11
2022-11-24T15:08:47.659Z,11.08
2022-11-24T15:11:15.420Z,11.07
2022-11-24T15:13:53.279Z,11.03
2022-11-24T15:16:22.100Z,10.98
2022-11-24T15:18:51.799Z,10.95
2022-11-24T15:21:31.474Z,10.94
2022-11-24T15:24:06.940Z,10.91
2022-11-24T15:29:13.547Z,10.89
2022-11-24T15:31:45.138Z,10.87
2022-11-24T15:34:15.465Z,10.83
2022-11-24T15:36:43.133Z,10.83
2022-11-24T15:39:10.777Z,10.79
2022-11-24T15:41:38.823Z,10.77
2022-11-24T15:44:06.530Z,10.71
2022-11-24T15:46:38.581Z,10.71
2022-11-24T15:49:07.446Z,10.67
2022-11-24T15:51:36.220Z,10.65
2022-11-24T15:54:03.938Z,10.63
2022-11-24T15:56:33.352Z,10.62
2022-11-24T15:59:01.045Z,10.60
2022-11-24T16:01:31.418Z,10.58
2022-11-24T16:04:00.721Z,10.57
2022-11-24T16:06:28.388Z,10.55
2022-11-24T16:08:56.438Z,10.53
2022-11-24T16:11:24.443Z,10.52
2022-11-24T16:13:54.051Z,10.49
2022-11-24T16:16:23.398Z,10.48
2022-11-24T16:18:51.376Z,10.48
2022-11-24T16:21:20.437Z,10.46
2022-11-24T16:23:48.702Z,10.45
2022-11-24T16:26:16.416Z,10.43
2022-11-24T16:28:45.632Z,10.39
2022-11-24T16:31:15.635Z,10.36
2022-11-24T16:33:44.790Z,10.33
2022-11-24T16:36:13.060Z,10.32
2022-11-24T16:38:42.134Z,10.30
2022-11-24T16:41:10.332Z,10.27
2022-11-24T16:43:38.290Z,10.26
2022-11-24T16:46:17.643Z,10.24
2022-11-24T16:48:45.935Z,10.23
2022-11-24T16:51:14.491Z,10.21
2022-11-24T16:53:44.219Z,10.18
2022-11-24T16:56:11.941Z,10.16
2022-11-24T16:58:40.744Z,10.15
2022-11-24T17:01:10.680Z,10.13
2022-11-24T17:03:38.630Z,10.11
2022-11-24T17:06:07.869Z,10.10
2022-11-24T17:08:36.746Z,10.11
2022-11-24T17:11:08.183Z,10.08
2022-11-24T17:13:35.874Z,10.06
2022-11-24T17:16:05.464Z,10.05
2022-11-24T17:18:33.250Z,10.03
2022-11-24T17:21:07.671Z,10.01
2022-11-24T17:23:37.091Z,9.99
2022-11-24T17:26:07.337Z,9.98
2022-11-24T17:28:35.389Z,9.92
2022-11-24T17:31:07.163Z,9.97
2022-11-24T17:33:35.107Z,9.95
2022-11-24T17:36:03.901Z,9.96
2022-11-24T17:38:32.038Z,9.94
2022-11-24T17:40:59.749Z,9.89
2022-11-24T17:43:28.749Z,9.92
2022-11-24T17:45:57.638Z,9.90
2022-11-24T17:48:25.531Z,9.87
2022-11-24T17:51:00.189Z,9.86
2022-11-24T17:53:27.864Z,9.86
2022-11-24T17:55:55.516Z,9.85
2022-11-24T17:58:23.278Z,9.83
2022-11-24T18:00:52.840Z,9.82
2022-11-24T18:03:20.536Z,9.80
2022-11-24T18:05:48.240Z,9.78
2022-11-24T18:08:15.890Z,9.77
2022-11-24T18:10:43.765Z,9.79
2022-11-24T18:13:27.440Z,9.77
2022-11-24T18:16:02.049Z,9.74
2022-11-24T18:18:29.823Z,9.74
2022-11-24T18:20:57.662Z,9.73
2022-11-24T18:23:25.563Z,9.73
2022-11-24T18:25:54.101Z,9.73
2022-11-24T18:28:22.168Z,9.71
2022-11-24T18:30:50.137Z,9.66
2022-11-24T18:33:19.358Z,9.66
2022-11-24T18:35:56.763Z,9.66
2022-11-24T18:38:24.643Z,9.64
2022-11-24T18:40:56.019Z,9.64
2022-11-24T18:43:24.182Z,9.62
2022-11-24T18:45:53.087Z,9.59
2022-11-24T18:48:23.036Z,9.58
2022-11-24T18:50:51.771Z,9.56
2022-11-24T18:53:19.859Z,9.54
2022-11-24T18:55:55.806Z,9.54
2022-11-24T18:58:23.577Z,9.55
2022-11-24T19:00:51.427Z,9.54
2022-11-24T19:03:19.322Z,9.55
2022-11-24T19:05:48.340Z,9.57
2022-11-24T19:08:16.015Z,9.56
2022-11-24T19:10:45.252Z,9.54
2022-11-24T19:13:14.323Z,9.54
2022-11-24T19:15:41.953Z,9.55
2022-11-24T19:18:09.595Z,9.54
2022-11-24T19:20:37.298Z,9.51
2022-11-24T19:23:06.416Z,9.49
2022-11-24T19:25:34.134Z,9.50
2022-11-24T19:28:01.819Z,9.52
2022-11-24T19:30:30.175Z,9.46
2022-11-24T19:32:58.123Z,9.50
2022-11-24T19:35:25.823Z,9.48
2022-11-24T19:37:53.527Z,9.47
2022-11-24T19:40:22.587Z,9.47
2022-11-24T19:42:50.857Z,9.46
2022-11-24T19:45:18.540Z,9.47
2022-11-24T19:47:46.167Z,9.47
2022-11-24T19:50:13.949Z,9.48
2022-11-24T19:52:41.607Z,9.49
2022-11-24T19:55:09.971Z,9.47
2022-11-24T19:57:39.020Z,9.48
2022-11-24T20:00:09.531Z,9.46
2022-11-24T20:02:37.344Z,9.46
2022-11-24T20:05:05.366Z,9.44
2022-11-24T20:07:33.005Z,9.39
2022-11-24T20:10:06.089Z,9.40
2022-11-24T20:12:35.329Z,9.39
2022-11-24T20:15:04.957Z,9.37
2022-11-24T20:17:32.857Z,9.35
2022-11-24T20:20:00.601Z,9.32
2022-11-24T20:22:28.247Z,9.29
2022-11-24T20:24:55.941Z,9.25
2022-11-24T20:27:23.633Z,9.24
2022-11-24T20:29:51.266Z,9.24
2022-11-24T20:32:20.699Z,9.23
2022-11-24T20:34:49.351Z,9.21
2022-11-24T20:37:17.008Z,9.24
2022-11-24T20:39:44.607Z,9.23
2022-11-24T20:42:12.274Z,9.24
2022-11-24T20:44:39.959Z,9.22
2022-11-24T20:47:07.668Z,9.24
2022-11-24T20:49:36.776Z,9.23
2022-11-24T20:52:04.536Z,9.22
2022-11-24T20:54:32.220Z,9.21
2022-11-24T20:57:00.038Z,9.22
2022-11-24T20:59:27.780Z,9.21
2022-11-24T21:01:56.168Z,9.18
2022-11-24T21:04:25.327Z,9.18
2022-11-24T21:06:54.688Z,9.18
2022-11-24T21:09:22.460Z,9.17
2022-11-24T21:11:50.627Z,9.17
2022-11-24T21:14:18.341Z,9.15
2022-11-24T21:16:46.138Z,9.10
2022-11-24T21:19:17.766Z,9.13
2022-11-24T21:21:47.431Z,9.14
2022-11-24T21:24:17.913Z,9.11
2022-11-24T21:26:47.820Z,9.10
2022-11-24T21:29:17.566Z,9.09
2022-11-24T21:31:45.654Z,9.02
2022-11-24T21:34:16.259Z,9.04
2022-11-24T21:36:45.555Z,9.05
2022-11-24T21:39:14.532Z,9.05
2022-11-24T21:41:44.710Z,9.07
2022-11-24T21:44:12.865Z,9.04
2022-11-24T21:46:44.963Z,9.01
2022-11-24T21:49:15.937Z,8.97
2022-11-24T21:51:43.531Z,8.97
2022-11-24T21:54:11.247Z,8.96
2022-11-24T21:56:38.929Z,8.96
2022-11-24T21:59:08.042Z,8.93
2022-11-24T22:01:35.809Z,8.93
2022-11-24T22:04:03.467Z,8.92
2022-11-24T22:06:32.086Z,8.92
2022-11-24T22:08:59.796Z,8.91
2022-11-24T22:11:27.474Z,8.90
2022-11-24T22:13:55.176Z,8.91
2022-11-24T22:16:25.571Z,8.91
2022-11-24T22:18:53.657Z,8.88
2022-11-24T22:21:23.785Z,8.88
2022-11-24T22:23:52.343Z,8.88
2022-11-24T22:26:22.301Z,8.87
2022-11-24T22:28:50.297Z,8.85
2022-11-24T22:31:19.441Z,8.83
2022-11-24T22:33:49.237Z,8.82
2022-11-24T22:36:18.232Z,8.83
2022-11-24T22:38:45.883Z,8.83
2022-11-24T22:41:15.111Z,8.84
2022-11-24T22:43:43.654Z,8.86
2022-11-24T22:46:12.699Z,8.88
2022-11-24T22:48:41.167Z,8.89
2022-11-24T22:51:11.912Z,8.89
2022-11-24T22:53:39.652Z,8.92
2022-11-24T22:56:09.823Z,8.95
2022-11-24T22:58:37.706Z,8.93
2022-11-24T23:01:06.465Z,8.94
2022-11-24T23:03:35.104Z,8.91
2022-11-24T23:06:02.934Z,8.95
2022-11-24T23:08:33.852Z,8.95
2022-11-24T23:11:02.092Z,8.96
2022-11-24T23:13:29.821Z,8.96
2022-11-24T23:16:01.319Z,9.00
2022-11-24T23:18:29.140Z,9.00
2022-11-24T23:20:56.864Z,9.00
2022-11-24T23:23:24.753Z,8.98
2022-11-24T23:25:54.109Z,9.00
2022-11-24T23:28:21.733Z,9.00
2022-11-24T23:30:49.338Z,9.01
2022-11-24T23:33:17.140Z,8.99
2022-11-24T23:35:44.856Z,9.00
2022-11-24T23:38:12.502Z,8.98
2022-11-24T23:40:40.159Z,8.97
2022-11-24T23:43:09.219Z,8.97
2022-11-24T23:45:36.901Z,8.96
2022-11-24T23:48:05.273Z,8.93
2022-11-24T23:50:32.957Z,8.97
2022-11-24T23:53:00.704Z,8.96
2022-11-24T23:55:28.275Z,8.95
2022-11-24T23:57:55.920Z,8.94
